createdAt,value
2018-12-22T00:01:58.945Z,4.07
2018-12-22T00:04:29.955Z,4.90
2018-12-22T00:07:00.965Z,3.67
2018-12-22T00:09:31.933Z,3.43
2018-12-22T00:12:03.029Z,4.60
2018-12-22T00:14:34.022Z,4.60
2018-12-22T00:17:05.078Z,4.10
2018-12-22T00:19:36.082Z,3.80
2018-12-22T00:22:07.070Z,4.33
2018-12-22T00:24:38.096Z,4.17
2018-12-22T00:27:09.101Z,3.73
2018-12-22T00:29:40.116Z,3.30
2018-12-22T00:32:11.138Z,5.03
2018-12-22T00:34:44.332Z,5.67
2018-12-22T00:37:15.434Z,4.20
2018-12-22T00:39:46.417Z,4.33
2018-12-22T00:42:17.433Z,3.47
2018-12-22T00:44:48.561Z,4.00
2018-12-22T00:47:19.562Z,3.10
2018-12-22T00:49:50.584Z,3.83
2018-12-22T00:52:21.554Z,2.83
2018-12-22T00:54:52.552Z,3.77
2018-12-22T00:57:23.574Z,3.63
2018-12-22T00:59:54.585Z,3.10
2018-12-22T01:02:25.589Z,3.20
2018-12-22T01:04:56.954Z,3.43
2018-12-22T01:07:28.100Z,3.17
2018-12-22T01:09:59.080Z,3.13
2018-12-22T01:12:30.080Z,3.20
2018-12-22T01:15:01.101Z,2.57
2018-12-22T01:17:32.107Z,3.10
2018-12-22T01:20:03.227Z,2.47
2018-12-22T01:22:34.225Z,2.73
2018-12-22T01:25:05.778Z,1.70
2018-12-22T01:27:36.900Z,1.57
2018-12-22T01:30:08.514Z,1.73
2018-12-22T01:32:39.736Z,2.23
2018-12-22T01:35:10.844Z,2.07
2018-12-22T01:37:41.822Z,2.17
2018-12-22T01:40:12.815Z,1.50
2018-12-22T01:42:43.817Z,2.27
2018-12-22T01:45:14.819Z,1.70
2018-12-22T01:47:45.836Z,2.03
2018-12-22T01:50:17.140Z,1.57
2018-12-22T01:52:48.107Z,1.23
2018-12-22T01:55:19.094Z,1.70
2018-12-22T01:57:50.068Z,2.13
2018-12-22T02:00:21.089Z,1.77
2018-12-22T02:02:52.083Z,2.00
2018-12-22T02:05:23.077Z,2.60
2018-12-22T02:07:54.068Z,2.47
2018-12-22T02:10:25.090Z,1.93
2018-12-22T02:12:56.075Z,1.93
2018-12-22T02:15:27.766Z,2.07
2018-12-22T02:17:58.742Z,2.60
2018-12-22T02:20:29.738Z,2.27
2018-12-22T02:23:00.728Z,2.37
2018-12-22T02:25:31.696Z,1.90
2018-12-22T02:28:02.779Z,2.20
2018-12-22T02:30:33.796Z,2.93
2018-12-22T02:33:04.768Z,1.73
2018-12-22T02:35:35.841Z,2.43
2018-12-22T02:38:06.868Z,2.27
2018-12-22T02:40:37.852Z,2.20
2018-12-22T02:43:08.885Z,2.50
2018-12-22T02:45:39.968Z,2.07
2018-12-22T02:48:10.974Z,2.10
2018-12-22T02:50:41.973Z,2.67
2018-12-22T02:53:12.980Z,2.93
2018-12-22T02:55:43.988Z,2.50
2018-12-22T02:58:14.974Z,2.70
2018-12-22T03:00:46.016Z,2.97
2018-12-22T03:03:17.013Z,2.83
2018-12-22T03:05:47.967Z,2.13
2018-12-22T03:08:19.229Z,2.67
2018-12-22T03:10:50.208Z,3.00
2018-12-22T03:13:21.400Z,2.50
2018-12-22T03:15:52.426Z,2.60
2018-12-22T03:18:23.432Z,2.37
2018-12-22T03:20:54.441Z,3.00
2018-12-22T03:23:25.447Z,2.43
2018-12-22T03:25:56.521Z,2.23
2018-12-22T03:28:27.501Z,2.97
2018-12-22T03:30:58.513Z,3.20
2018-12-22T03:33:29.514Z,2.70
2018-12-22T03:36:00.518Z,2.43
2018-12-22T03:38:31.494Z,2.43
2018-12-22T03:41:02.638Z,2.67
2018-12-22T03:43:33.614Z,1.90
2018-12-22T03:46:04.616Z,3.00
2018-12-22T03:48:35.604Z,2.00
2018-12-22T03:51:06.612Z,2.23
2018-12-22T03:53:37.643Z,2.33
2018-12-22T03:56:08.612Z,2.10
2018-12-22T03:58:39.554Z,2.37
2018-12-22T04:01:10.554Z,2.27
2018-12-22T04:03:41.537Z,1.77
2018-12-22T04:06:12.545Z,3.23
2018-12-22T04:08:43.512Z,2.83
2018-12-22T04:11:14.516Z,2.10
2018-12-22T04:13:45.509Z,2.53
2018-12-22T04:16:16.510Z,2.13
2018-12-22T04:18:47.586Z,2.20
2018-12-22T04:21:18.635Z,2.30
2018-12-22T04:23:49.628Z,2.60
2018-12-22T04:26:20.623Z,2.77
2018-12-22T04:28:51.606Z,2.93
2018-12-22T04:31:22.585Z,1.77
2018-12-22T04:33:53.715Z,2.93
2018-12-22T04:36:24.846Z,2.77
2018-12-22T04:38:55.858Z,2.23
2018-12-22T04:41:26.847Z,2.13
2018-12-22T04:43:57.856Z,2.43
2018-12-22T04:46:28.819Z,2.20
2018-12-22T04:48:59.835Z,2.43
2018-12-22T04:51:30.941Z,2.70
2018-12-22T04:54:01.957Z,3.07
2018-12-22T04:56:32.940Z,2.53
2018-12-22T04:59:04.054Z,2.73
2018-12-22T05:01:35.037Z,2.90
2018-12-22T05:04:06.046Z,3.20
2018-12-22T05:06:37.124Z,2.27
2018-12-22T05:09:08.178Z,1.90
2018-12-22T05:11:39.542Z,2.47
2018-12-22T05:14:10.573Z,2.20
2018-12-22T05:16:41.566Z,2.93
2018-12-22T05:19:12.560Z,3.00
2018-12-22T05:21:43.650Z,2.63
2018-12-22T05:24:14.694Z,2.60
2018-12-22T05:26:45.702Z,2.37
2018-12-22T05:29:16.700Z,2.83
2018-12-22T05:31:47.706Z,4.30
2018-12-22T05:34:18.712Z,3.13
2018-12-22T05:36:49.693Z,2.80
2018-12-22T05:39:20.678Z,2.83
2018-12-22T05:41:51.684Z,2.77
2018-12-22T05:44:22.691Z,3.27
2018-12-22T05:46:53.681Z,2.80
2018-12-22T05:49:24.687Z,2.50
2018-12-22T05:51:55.669Z,3.20
2018-12-22T05:54:26.678Z,3.10
2018-12-22T05:57:04.313Z,2.30
2018-12-22T05:59:35.706Z,2.70
2018-12-22T06:02:06.691Z,2.73
2018-12-22T06:04:37.677Z,3.30
2018-12-22T06:07:08.686Z,2.47
2018-12-22T06:09:39.676Z,2.93
2018-12-22T06:12:10.698Z,1.87
2018-12-22T06:14:42.841Z,2.43
2018-12-22T06:17:13.836Z,2.00
2018-12-22T06:19:44.824Z,1.83
2018-12-22T06:22:15.804Z,1.97
2018-12-22T06:24:47.497Z,2.53
2018-12-22T06:27:18.583Z,3.33
2018-12-22T06:29:49.660Z,2.03
2018-12-22T06:32:20.648Z,2.70
2018-12-22T06:34:52.256Z,2.73
2018-12-22T06:37:23.283Z,2.43
2018-12-22T06:39:54.275Z,2.67
2018-12-22T06:42:25.301Z,2.57
2018-12-22T06:44:56.311Z,3.10
2018-12-22T06:47:33.749Z,2.33
2018-12-22T06:50:05.188Z,2.90
2018-12-22T06:52:36.194Z,2.53
2018-12-22T06:55:07.318Z,2.67
2018-12-22T06:57:38.315Z,2.20
2018-12-22T07:00:17.431Z,2.23
2018-12-22T07:02:43.590Z,2.30
2018-12-22T07:05:14.572Z,2.47
2018-12-22T07:07:45.622Z,1.33
2018-12-22T07:10:16.640Z,2.23
2018-12-22T07:12:47.611Z,2.93
2018-12-22T07:15:18.606Z,2.37
2018-12-22T07:17:49.578Z,2.27
2018-12-22T07:20:20.620Z,2.23
2018-12-22T07:22:51.664Z,1.87
2018-12-22T07:25:22.636Z,1.70
2018-12-22T07:27:53.636Z,2.00
2018-12-22T07:30:26.276Z,1.53
2018-12-22T07:32:57.680Z,2.47
2018-12-22T07:35:28.757Z,2.27
2018-12-22T07:37:59.770Z,2.20
2018-12-22T07:40:30.741Z,2.30
2018-12-22T07:43:01.769Z,2.33
2018-12-22T07:45:32.739Z,2.53
2018-12-22T07:48:03.731Z,2.63
2018-12-22T07:50:34.708Z,2.40
2018-12-22T07:53:05.770Z,3.20
2018-12-22T07:55:36.782Z,2.67
2018-12-22T07:58:07.774Z,2.80
2018-12-22T08:00:38.750Z,2.03
2018-12-22T08:03:09.758Z,2.80
2018-12-22T08:05:40.730Z,2.97
2018-12-22T08:08:11.831Z,2.17
2018-12-22T08:10:42.829Z,2.57
2018-12-22T08:13:13.835Z,2.17
2018-12-22T08:15:44.837Z,2.60
2018-12-22T08:18:15.834Z,2.07
2018-12-22T08:20:46.833Z,2.00
2018-12-22T08:23:18.650Z,2.57
2018-12-22T08:25:49.638Z,2.10
2018-12-22T08:28:20.613Z,2.43
2018-12-22T08:30:51.617Z,3.07
2018-12-22T08:33:22.622Z,3.03
2018-12-22T08:35:53.604Z,2.37
2018-12-22T08:38:24.627Z,1.93
2018-12-22T08:40:55.630Z,2.20
2018-12-22T08:43:33.424Z,1.80
2018-12-22T08:46:04.466Z,2.23
2018-12-22T08:48:35.514Z,2.27
2018-12-22T08:51:06.509Z,2.30
2018-12-22T08:53:37.515Z,2.40
2018-12-22T08:56:08.553Z,2.90
2018-12-22T08:58:39.569Z,3.00
2018-12-22T09:01:10.556Z,2.80
2018-12-22T09:03:41.642Z,3.63
2018-12-22T09:06:12.663Z,3.80
2018-12-22T09:08:43.684Z,2.53
2018-12-22T09:11:14.673Z,2.43
2018-12-22T09:13:45.683Z,3.40
2018-12-22T09:16:16.827Z,3.43
2018-12-22T09:18:47.837Z,3.13
2018-12-22T09:21:19.481Z,2.40
2018-12-22T09:23:50.469Z,2.73
2018-12-22T09:26:21.633Z,3.33
2018-12-22T09:28:52.623Z,1.93
2018-12-22T09:31:23.646Z,3.03
2018-12-22T09:33:54.711Z,3.17
2018-12-22T09:36:25.720Z,3.17
2018-12-22T09:38:56.774Z,2.70
2018-12-22T09:41:27.772Z,3.07
2018-12-22T09:43:58.826Z,3.13
2018-12-22T09:46:29.947Z,2.27
2018-12-22T09:49:00.931Z,2.97
2018-12-22T09:51:31.978Z,2.70
2018-12-22T09:54:03.090Z,2.90
2018-12-22T09:56:34.094Z,2.40
2018-12-22T09:59:06.460Z,3.17
2018-12-22T10:01:37.674Z,4.23
2018-12-22T10:04:08.679Z,2.60
2018-12-22T10:06:39.687Z,2.97
2018-12-22T10:09:10.661Z,2.87
2018-12-22T10:11:41.636Z,3.47
2018-12-22T10:14:12.682Z,2.57
2018-12-22T10:16:43.697Z,2.63
2018-12-22T10:19:14.715Z,2.90
2018-12-22T10:21:45.715Z,2.17
2018-12-22T10:24:17.134Z,2.63
2018-12-22T10:26:48.120Z,3.37
2018-12-22T10:29:19.238Z,2.30
2018-12-22T10:31:50.328Z,3.20
2018-12-22T10:34:21.352Z,2.70
2018-12-22T10:36:52.405Z,2.70
2018-12-22T10:39:23.407Z,2.70
2018-12-22T10:41:55.537Z,3.60
2018-12-22T10:44:26.881Z,3.13
2018-12-22T10:46:57.877Z,2.70
2018-12-22T10:49:28.859Z,2.87
2018-12-22T10:52:01.121Z,2.50
2018-12-22T10:54:32.129Z,3.33
2018-12-22T10:57:04.167Z,2.57
2018-12-22T10:59:35.346Z,3.07
2018-12-22T11:02:06.430Z,2.50
2018-12-22T11:04:37.454Z,2.67
2018-12-22T11:07:08.489Z,3.67
2018-12-22T11:09:39.507Z,2.27
2018-12-22T11:12:10.493Z,2.77
2018-12-22T11:14:41.483Z,3.63
2018-12-22T11:17:12.477Z,2.80
2018-12-22T11:19:43.508Z,2.77
2018-12-22T11:22:14.531Z,2.23
2018-12-22T11:24:45.504Z,3.70
2018-12-22T11:27:16.514Z,2.10
2018-12-22T11:29:47.638Z,2.53
2018-12-22T11:32:18.739Z,3.00
2018-12-22T11:34:49.740Z,2.30
2018-12-22T11:37:20.795Z,2.80
2018-12-22T11:39:51.826Z,2.70
2018-12-22T11:42:23.471Z,2.80
2018-12-22T11:44:54.626Z,1.90
2018-12-22T11:47:32.478Z,3.23
2018-12-22T11:50:03.828Z,1.97
2018-12-22T11:52:35.385Z,1.60
2018-12-22T11:55:07.388Z,2.17
2018-12-22T11:57:38.381Z,2.43
2018-12-22T12:00:10.960Z,2.00
2018-12-22T12:02:42.008Z,2.23
2018-12-22T12:05:12.995Z,1.90
2018-12-22T12:07:44.038Z,2.60
2018-12-22T12:10:15.048Z,1.90
2018-12-22T12:12:46.033Z,2.37
2018-12-22T12:15:20.453Z,2.50
2018-12-22T12:18:40.538Z,2.70
2018-12-22T12:21:11.513Z,2.40
2018-12-22T12:23:42.523Z,3.10
2018-12-22T12:26:13.549Z,2.43
2018-12-22T12:28:44.532Z,2.77
2018-12-22T12:31:15.531Z,1.50
2018-12-22T12:33:46.519Z,2.27
2018-12-22T12:36:17.483Z,1.77
2018-12-22T12:38:48.503Z,2.43
2018-12-22T12:41:19.564Z,1.90
2018-12-22T12:43:50.555Z,2.10
2018-12-22T12:46:22.665Z,2.40
2018-12-22T12:48:53.682Z,1.80
2018-12-22T12:51:24.677Z,2.33
2018-12-22T12:53:55.697Z,1.93
2018-12-22T12:56:27.576Z,2.50
2018-12-22T12:58:58.602Z,1.67
2018-12-22T13:01:29.642Z,1.60
2018-12-22T13:04:00.627Z,2.00
2018-12-22T13:06:32.021Z,2.33
2018-12-22T13:09:03.387Z,2.17
2018-12-22T13:11:34.399Z,1.77
2018-12-22T13:14:09.605Z,2.23
2018-12-22T13:16:40.642Z,2.17
2018-12-22T13:19:11.643Z,2.77
2018-12-22T13:21:45.885Z,1.67
2018-12-22T13:24:18.522Z,1.67
2018-12-22T13:26:49.767Z,2.07
2018-12-22T13:29:20.816Z,1.60
2018-12-22T13:31:51.890Z,2.30
2018-12-22T13:34:29.662Z,1.77
2018-12-22T13:37:00.721Z,1.77
2018-12-22T13:39:32.134Z,2.33
2018-12-22T13:42:03.230Z,2.07
2018-12-22T13:44:34.264Z,2.37
2018-12-22T13:47:05.331Z,1.77
2018-12-22T13:49:36.434Z,1.83
2018-12-22T13:52:07.526Z,2.03
2018-12-22T13:54:38.552Z,1.77
2018-12-22T13:57:09.662Z,1.87
2018-12-22T13:59:40.701Z,2.00
2018-12-22T14:02:18.122Z,2.30
2018-12-22T14:04:44.775Z,2.10
2018-12-22T14:07:15.767Z,1.77
2018-12-22T14:09:46.751Z,1.70
2018-12-22T14:12:17.776Z,1.77
2018-12-22T14:14:48.808Z,1.43
2018-12-22T14:17:24.984Z,1.63
2018-12-22T14:19:58.914Z,2.13
2018-12-22T14:22:31.972Z,1.23
2018-12-22T14:25:05.092Z,2.07
2018-12-22T14:27:36.122Z,1.13
2018-12-22T14:30:10.370Z,1.50
2018-12-22T14:32:41.398Z,1.30
2018-12-22T14:35:18.234Z,1.90
2018-12-22T14:37:49.233Z,1.70
2018-12-22T14:40:20.235Z,1.80
2018-12-22T14:42:51.348Z,1.63
2018-12-22T14:45:30.225Z,1.30
2018-12-22T14:48:01.281Z,1.83
2018-12-22T14:50:32.277Z,1.57
2018-12-22T14:53:03.943Z,1.77
2018-12-22T14:55:34.991Z,1.60
2018-12-22T14:58:18.929Z,1.57
2018-12-22T15:00:50.141Z,1.63
2018-12-22T15:03:21.179Z,1.60
2018-12-22T15:05:52.759Z,2.03
2018-12-22T15:08:23.793Z,1.93
2018-12-22T15:10:54.872Z,1.70
2018-12-22T15:13:26.820Z,1.40
2018-12-22T15:15:58.342Z,2.20
2018-12-22T15:18:29.403Z,1.67
2018-12-22T15:21:00.593Z,2.33
2018-12-22T15:23:31.588Z,1.57
2018-12-22T15:26:02.621Z,2.10
2018-12-22T15:28:33.607Z,5.37
2018-12-22T15:31:04.671Z,2.70
2018-12-22T15:33:42.368Z,1.93
2018-12-22T15:36:13.348Z,1.67
2018-12-22T15:38:44.385Z,3.13
2018-12-22T15:41:15.393Z,2.33
2018-12-22T15:43:46.513Z,1.70
2018-12-22T15:46:17.808Z,1.90
2018-12-22T15:48:48.805Z,1.90
2018-12-22T15:51:19.831Z,2.20
2018-12-22T15:53:50.871Z,2.97
2018-12-22T15:56:21.875Z,2.80
2018-12-22T15:58:52.862Z,2.23
2018-12-22T16:01:23.862Z,1.87
2018-12-22T16:03:54.865Z,2.17
2018-12-22T16:06:25.902Z,2.07
2018-12-22T16:08:56.919Z,1.90
2018-12-22T16:11:27.913Z,2.83
2018-12-22T16:13:58.911Z,1.93
2018-12-22T16:16:29.903Z,2.03
2018-12-22T16:19:00.863Z,2.20
2018-12-22T16:21:31.890Z,1.77
2018-12-22T16:24:02.937Z,2.27
2018-12-22T16:26:33.950Z,2.43
2018-12-22T16:29:15.401Z,2.00
2018-12-22T16:31:46.406Z,1.60
2018-12-22T16:34:17.442Z,2.83
2018-12-22T16:36:48.438Z,2.87
2018-12-22T16:39:19.463Z,2.37
2018-12-22T16:41:50.493Z,3.93
2018-12-22T16:44:21.545Z,2.93
2018-12-22T16:46:52.577Z,3.20
2018-12-22T16:49:23.697Z,3.23
2018-12-22T16:51:54.700Z,2.47
2018-12-22T16:54:26.200Z,3.07
2018-12-22T16:56:57.183Z,3.07
2018-12-22T16:59:30.112Z,3.23
2018-12-22T17:02:08.556Z,2.57
2018-12-22T17:04:39.617Z,2.83
2018-12-22T17:07:10.674Z,2.20
2018-12-22T17:09:41.665Z,2.50
2018-12-22T17:12:12.697Z,2.77
2018-12-22T17:14:47.891Z,2.90
2018-12-22T17:17:18.903Z,2.97
2018-12-22T17:19:49.916Z,2.87
2018-12-22T17:22:29.336Z,2.37
2018-12-22T17:26:10.444Z,2.70
2018-12-22T17:28:41.573Z,3.10
2018-12-22T17:31:12.578Z,2.73
2018-12-22T17:33:44.226Z,3.23
2018-12-22T17:36:15.716Z,2.83
2018-12-22T17:38:46.768Z,1.97
2018-12-22T17:41:21.601Z,2.40
2018-12-22T17:43:52.612Z,2.47
2018-12-22T17:46:23.627Z,3.30
2018-12-22T17:48:54.620Z,2.70
2018-12-22T17:51:26.149Z,2.70
2018-12-22T17:53:57.259Z,2.63
2018-12-22T17:56:28.395Z,2.83
2018-12-22T17:58:59.401Z,2.80
2018-12-22T18:01:30.426Z,2.67
2018-12-22T18:04:01.491Z,1.93
2018-12-22T18:06:32.471Z,2.33
2018-12-22T18:09:04.740Z,2.60
2018-12-22T18:11:35.768Z,2.50
2018-12-22T18:14:06.788Z,2.90
2018-12-22T18:16:37.790Z,3.20
2018-12-22T18:19:08.788Z,2.67
2018-12-22T18:21:39.800Z,2.47
2018-12-22T18:24:17.543Z,2.87
2018-12-22T18:26:48.579Z,3.20
2018-12-22T18:29:19.598Z,3.10
2018-12-22T18:31:50.611Z,2.87
2018-12-22T18:34:21.605Z,2.67
2018-12-22T18:36:52.611Z,3.77
2018-12-22T18:39:23.689Z,2.63
2018-12-22T18:41:54.668Z,2.43
2018-12-22T18:44:25.667Z,3.40
2018-12-22T18:46:56.707Z,2.17
2018-12-22T18:49:27.716Z,2.90
2018-12-22T18:51:58.717Z,2.90
2018-12-22T18:54:29.748Z,2.50
2018-12-22T18:57:00.875Z,2.70
2018-12-22T18:59:31.911Z,2.80
2018-12-22T19:02:02.922Z,3.20
2018-12-22T19:04:34.004Z,3.13
2018-12-22T19:07:05.029Z,2.77
2018-12-22T19:09:37.695Z,3.67
2018-12-22T19:12:13.119Z,2.87
2018-12-22T19:14:51.771Z,3.20
2018-12-22T19:17:22.775Z,2.70
2018-12-22T19:19:53.768Z,2.93
2018-12-22T19:22:24.769Z,3.30
2018-12-22T19:24:55.801Z,3.70
2018-12-22T19:27:26.775Z,3.07
2018-12-22T19:29:57.783Z,3.60
2018-12-22T19:32:28.797Z,3.30
2018-12-22T19:34:59.814Z,2.87
2018-12-22T19:37:30.797Z,3.17
2018-12-22T19:40:01.835Z,2.87
2018-12-22T19:42:32.938Z,2.33
2018-12-22T19:45:05.335Z,3.47
2018-12-22T19:47:36.367Z,2.90
2018-12-22T19:50:07.655Z,2.83
2018-12-22T19:52:38.740Z,2.43
2018-12-22T19:55:09.740Z,3.33
2018-12-22T19:57:40.747Z,4.53
2018-12-22T20:00:11.758Z,2.53
2018-12-22T20:02:42.774Z,3.23
2018-12-22T20:05:13.782Z,2.70
2018-12-22T20:07:44.758Z,2.73
2018-12-22T20:10:15.751Z,3.70
2018-12-22T20:12:46.752Z,3.23
2018-12-22T20:15:17.806Z,4.13
2018-12-22T20:17:48.808Z,3.47
2018-12-22T20:20:20.475Z,2.37
2018-12-22T20:22:55.059Z,2.80
2018-12-22T20:25:26.101Z,4.67
2018-12-22T20:27:57.153Z,6.00
2018-12-22T20:30:28.152Z,5.80
2018-12-22T20:32:59.140Z,3.63
2018-12-22T20:35:30.167Z,3.23
2018-12-22T20:38:01.161Z,3.40
2018-12-22T20:40:32.179Z,3.97
2018-12-22T20:43:03.139Z,4.27
2018-12-22T20:45:34.143Z,6.90
2018-12-22T20:48:05.171Z,4.73
2018-12-22T20:50:36.168Z,4.67
2018-12-22T20:53:07.264Z,3.60
2018-12-22T20:55:38.267Z,4.33
2018-12-22T20:58:09.259Z,3.53
2018-12-22T21:00:40.277Z,2.80
2018-12-22T21:03:11.279Z,4.60
2018-12-22T21:05:47.375Z,3.80
2018-12-22T21:08:18.411Z,3.17
2018-12-22T21:10:49.411Z,3.80
2018-12-22T21:13:23.351Z,3.47
2018-12-22T21:15:54.359Z,3.30
2018-12-22T21:18:25.341Z,4.33
2018-12-22T21:20:56.355Z,3.60
2018-12-22T21:23:27.392Z,3.57
2018-12-22T21:25:58.423Z,3.97
2018-12-22T21:28:29.443Z,4.53
2018-12-22T21:31:00.454Z,4.27
2018-12-22T21:33:31.428Z,6.87
2018-12-22T21:36:02.474Z,10.73
2018-12-22T21:38:33.499Z,16.77
2018-12-22T21:41:04.620Z,4.33
2018-12-22T21:43:35.624Z,4.10
2018-12-22T21:46:06.628Z,3.33
2018-12-22T21:48:37.613Z,4.10
2018-12-22T21:51:08.647Z,4.20
2018-12-22T21:53:39.675Z,3.80
2018-12-22T21:56:10.681Z,3.37
2018-12-22T21:58:41.692Z,4.33
2018-12-22T22:01:12.727Z,3.37
2018-12-22T22:03:43.768Z,3.23
2018-12-22T22:06:14.788Z,3.37
2018-12-22T22:08:45.766Z,3.13
2018-12-22T22:11:16.941Z,3.33
2018-12-22T22:13:48.061Z,4.50
2018-12-22T22:16:19.070Z,3.90
2018-12-22T22:18:50.054Z,3.40
2018-12-22T22:21:21.070Z,4.33
2018-12-22T22:23:52.045Z,3.50
2018-12-22T22:26:23.014Z,3.00
2018-12-22T22:28:54.001Z,3.37
2018-12-22T22:31:25.051Z,3.03
2018-12-22T22:33:56.066Z,2.67
2018-12-22T22:36:27.087Z,3.33
2018-12-22T22:38:58.130Z,3.33
2018-12-22T22:41:29.130Z,3.43
2018-12-22T22:44:00.097Z,4.77
2018-12-22T22:46:31.116Z,3.30
2018-12-22T22:49:02.128Z,3.00
2018-12-22T22:51:33.123Z,2.67
2018-12-22T22:54:04.199Z,2.93
2018-12-22T22:56:35.282Z,3.10
2018-12-22T22:59:06.250Z,4.43
2018-12-22T23:01:43.776Z,3.53
2018-12-22T23:04:22.533Z,3.27
2018-12-22T23:06:53.705Z,2.53
2018-12-22T23:09:24.675Z,2.60
2018-12-22T23:11:56.192Z,3.30
2018-12-22T23:14:27.196Z,3.27
2018-12-22T23:16:58.275Z,4.40
2018-12-22T23:19:29.263Z,5.23
2018-12-22T23:22:00.260Z,3.83
2018-12-22T23:24:31.242Z,3.20
2018-12-22T23:27:02.240Z,3.63
2018-12-22T23:29:33.244Z,3.80
2018-12-22T23:32:04.393Z,2.87
2018-12-22T23:34:35.405Z,2.77
2018-12-22T23:37:06.509Z,3.07
2018-12-22T23:39:37.511Z,3.30
2018-12-22T23:42:08.815Z,4.33
2018-12-22T23:44:39.808Z,4.17
2018-12-22T23:47:10.779Z,3.17
2018-12-22T23:49:41.879Z,3.07
2018-12-22T23:52:12.899Z,3.80
2018-12-22T23:54:43.883Z,3.10
2018-12-22T23:57:14.872Z,3.03
2018-12-22T23:59:45.854Z,3.57
